createdAt,value
2023-04-26T00:01:35.627Z,100239.03
2023-04-26T00:04:03.453Z,100238.34
2023-04-26T00:06:30.730Z,100229.03
2023-04-26T00:08:57.886Z,100209.41
2023-04-26T00:11:25.004Z,100234.41
2023-04-26T00:13:52.194Z,100223.00
2023-04-26T00:16:20.317Z,100214.28
2023-04-26T00:18:47.452Z,100218.28
2023-04-26T00:21:14.711Z,100216.84
2023-04-26T00:23:42.333Z,100223.41
2023-04-26T00:26:09.412Z,100211.94
2023-04-26T00:28:36.565Z,100210.88
2023-04-26T00:31:03.845Z,100223.13
2023-04-26T00:33:30.999Z,100180.91
2023-04-26T00:35:57.905Z,100177.47
2023-04-26T00:38:24.966Z,100216.56
2023-04-26T00:40:51.989Z,100175.91
2023-04-26T00:43:19.311Z,100205.63
2023-04-26T00:45:46.480Z,100196.50
2023-04-26T00:48:13.629Z,100190.44
2023-04-26T00:50:40.755Z,100192.00
2023-04-26T00:53:09.035Z,100195.91
2023-04-26T00:55:36.885Z,100182.97
2023-04-26T00:58:03.986Z,100180.59
2023-04-26T01:00:31.229Z,100194.16
2023-04-26T01:02:58.574Z,100142.16
2023-04-26T01:05:26.029Z,100157.09
2023-04-26T01:07:53.563Z,100192.28
2023-04-26T01:10:20.632Z,100171.34
2023-04-26T01:12:48.655Z,100197.88
2023-04-26T01:15:18.323Z,100187.38
2023-04-26T01:17:48.491Z,100172.97
2023-04-26T01:20:15.679Z,100190.31
2023-04-26T01:22:42.819Z,100180.41
2023-04-26T01:25:12.605Z,100161.59
2023-04-26T01:27:40.076Z,100194.81
2023-04-26T01:30:08.499Z,100167.94
2023-04-26T01:32:35.801Z,100178.66
2023-04-26T01:35:03.179Z,100206.78
2023-04-26T01:37:30.210Z,100207.47
2023-04-26T01:39:59.895Z,100203.94
2023-04-26T01:42:27.328Z,100197.63
2023-04-26T01:44:54.363Z,100220.38
2023-04-26T01:47:22.579Z,100217.59
2023-04-26T01:49:49.630Z,100232.34
2023-04-26T01:52:16.888Z,100227.41
2023-04-26T01:54:46.248Z,100230.84
2023-04-26T01:57:13.320Z,100216.25
2023-04-26T01:59:40.410Z,100224.78
2023-04-26T02:02:07.658Z,100197.56
2023-04-26T02:04:38.312Z,100155.13
2023-04-26T02:07:05.446Z,100222.56
2023-04-26T02:09:32.604Z,100214.72
2023-04-26T02:11:59.700Z,100119.50
2023-04-26T02:14:26.901Z,100213.13
2023-04-26T02:16:54.056Z,100213.81
2023-04-26T02:19:21.157Z,100202.06
2023-04-26T02:21:52.883Z,100192.19
2023-04-26T02:24:20.322Z,100215.00
2023-04-26T02:26:47.448Z,100210.22
2023-04-26T02:29:15.024Z,100209.34
2023-04-26T02:31:42.375Z,100193.34
2023-04-26T02:34:09.784Z,100213.06
2023-04-26T02:36:37.146Z,100194.44
2023-04-26T02:39:04.285Z,100187.84
2023-04-26T02:41:34.487Z,100204.50
2023-04-26T02:44:01.706Z,100163.81
2023-04-26T02:46:28.838Z,100194.13
2023-04-26T02:48:55.987Z,100200.13
2023-04-26T02:51:23.780Z,100193.09
2023-04-26T02:53:50.954Z,100118.22
2023-04-26T02:56:19.511Z,100177.19
2023-04-26T02:58:47.209Z,100163.44
2023-04-26T03:01:15.437Z,100131.09
2023-04-26T03:03:43.036Z,100179.94
2023-04-26T03:06:10.197Z,100159.25
2023-04-26T03:08:37.278Z,100190.41
2023-04-26T03:11:04.573Z,100184.63
2023-04-26T03:13:31.961Z,100197.13
2023-04-26T03:15:59.559Z,100170.47
2023-04-26T03:18:26.729Z,100186.56
2023-04-26T03:20:54.368Z,100186.69
2023-04-26T03:23:24.436Z,100197.56
2023-04-26T03:25:52.570Z,100182.72
2023-04-26T03:28:19.811Z,100171.66
2023-04-26T03:30:49.976Z,100187.06
2023-04-26T03:33:17.634Z,100149.13
2023-04-26T03:35:44.824Z,100163.09
2023-04-26T03:38:11.879Z,100178.69
2023-04-26T03:40:40.056Z,100180.00
2023-04-26T03:43:07.597Z,100160.19
2023-04-26T03:45:35.078Z,100179.72
2023-04-26T03:48:02.552Z,100170.22
2023-04-26T03:50:29.739Z,100174.75
2023-04-26T03:52:57.053Z,100180.72
2023-04-26T03:55:24.327Z,100178.22
2023-04-26T03:57:51.588Z,100158.91
2023-04-26T04:00:18.621Z,100182.13
2023-04-26T04:03:07.469Z,100199.88
2023-04-26T04:05:35.419Z,100187.63
2023-04-26T04:08:03.889Z,100194.13
2023-04-26T04:10:31.109Z,100190.81
2023-04-26T04:12:58.218Z,100155.72
2023-04-26T04:15:25.577Z,100165.56
2023-04-26T04:17:54.278Z,100159.09
2023-04-26T04:20:21.586Z,100196.63
2023-04-26T04:22:48.975Z,100205.03
2023-04-26T04:25:16.565Z,100175.75
2023-04-26T04:27:43.751Z,100209.03
2023-04-26T04:30:12.240Z,100204.31
2023-04-26T04:32:40.558Z,100210.28
2023-04-26T04:35:08.202Z,100204.56
2023-04-26T04:37:35.620Z,100214.38
2023-04-26T04:40:03.226Z,100179.19
2023-04-26T04:42:32.833Z,100227.03
2023-04-26T04:45:01.013Z,100195.28
2023-04-26T04:47:47.898Z,100192.72
2023-04-26T04:50:15.029Z,100224.31
2023-04-26T04:52:43.228Z,100213.34
2023-04-26T04:55:11.459Z,100222.66
2023-04-26T04:57:40.702Z,100226.69
2023-04-26T05:00:10.806Z,100235.53
2023-04-26T05:02:44.502Z,100222.81
2023-04-26T05:05:11.975Z,100237.50
2023-04-26T05:07:39.262Z,100237.28
2023-04-26T05:10:07.121Z,100235.81
2023-04-26T05:12:35.404Z,100247.00
2023-04-26T05:15:02.694Z,100230.22
2023-04-26T05:17:32.577Z,100235.09
2023-04-26T05:20:07.197Z,100236.28
2023-04-26T05:22:36.865Z,100241.56
2023-04-26T05:25:05.762Z,100243.22
2023-04-26T05:27:33.036Z,100224.84
2023-04-26T05:30:14.086Z,100229.72
2023-04-26T05:33:01.115Z,100239.69
2023-04-26T05:35:49.306Z,100242.63
2023-04-26T05:38:16.728Z,100240.44
2023-04-26T05:40:44.620Z,100247.34
2023-04-26T05:43:12.130Z,100247.97
2023-04-26T05:45:39.875Z,100254.56
2023-04-26T05:48:07.259Z,100221.94
2023-04-26T05:50:34.455Z,100255.56
2023-04-26T05:53:01.570Z,100257.56
2023-04-26T05:55:29.870Z,100246.75
2023-04-26T05:57:57.003Z,100202.84
2023-04-26T06:00:24.543Z,100258.41
2023-04-26T06:02:52.004Z,100209.66
2023-04-26T06:05:19.488Z,100256.38
2023-04-26T06:07:47.612Z,100258.75
2023-04-26T06:10:14.810Z,100258.91
2023-04-26T06:12:42.085Z,100263.94
2023-04-26T06:15:10.080Z,100269.44
2023-04-26T06:17:39.153Z,100258.72
2023-04-26T06:20:06.935Z,100276.53
2023-04-26T06:22:34.130Z,100260.66
2023-04-26T06:25:01.245Z,100284.88
2023-04-26T06:27:28.521Z,100290.41
2023-04-26T06:29:55.699Z,100268.81
2023-04-26T06:32:24.347Z,100276.69
2023-04-26T06:34:51.419Z,100276.41
2023-04-26T06:37:18.488Z,100284.59
2023-04-26T06:39:45.505Z,100280.91
2023-04-26T06:42:13.174Z,100279.94
2023-04-26T06:45:10.147Z,100288.50
2023-04-26T06:47:37.803Z,100285.53
2023-04-26T06:50:06.038Z,100293.63
2023-04-26T06:52:33.253Z,100282.97
2023-04-26T06:55:04.076Z,100291.84
2023-04-26T06:57:32.632Z,100297.78
2023-04-26T07:00:00.100Z,100296.22
2023-04-26T07:02:27.339Z,100307.53
2023-04-26T07:04:54.880Z,100281.63
2023-04-26T07:07:22.096Z,100314.13
2023-04-26T07:09:50.044Z,100294.09
2023-04-26T07:12:17.114Z,100312.03
2023-04-26T07:14:44.240Z,100306.63
2023-04-26T07:17:11.579Z,100312.88
2023-04-26T07:19:38.936Z,100295.13
2023-04-26T07:22:06.183Z,100318.59
2023-04-26T07:24:33.410Z,100304.31
2023-04-26T07:27:02.103Z,100326.75
2023-04-26T07:29:29.271Z,100289.97
2023-04-26T07:31:57.387Z,100297.88
2023-04-26T07:34:24.814Z,100315.06
2023-04-26T07:36:51.967Z,100311.28
2023-04-26T07:39:19.064Z,100288.28
2023-04-26T07:41:46.357Z,100322.53
2023-04-26T07:44:13.516Z,100321.50
2023-04-26T07:46:41.056Z,100318.66
2023-04-26T07:49:08.210Z,100313.72
2023-04-26T07:51:36.534Z,100316.94
2023-04-26T07:54:03.921Z,100309.94
2023-04-26T07:56:31.290Z,100303.41
2023-04-26T07:58:58.741Z,100316.44
2023-04-26T08:01:26.248Z,100312.78
2023-04-26T08:03:55.021Z,100324.28
2023-04-26T08:06:22.836Z,100315.47
2023-04-26T08:08:51.024Z,100300.91
2023-04-26T08:11:18.444Z,100310.81
2023-04-26T08:13:46.411Z,100319.25
2023-04-26T08:16:13.759Z,100321.56
2023-04-26T08:18:40.915Z,100316.28
2023-04-26T08:21:07.998Z,100324.94
2023-04-26T08:23:36.710Z,100312.13
2023-04-26T08:26:04.754Z,100322.63
2023-04-26T08:28:31.945Z,100315.09
2023-04-26T08:30:59.014Z,100325.50
2023-04-26T08:33:26.331Z,100328.69
2023-04-26T08:35:53.517Z,100323.19
2023-04-26T08:38:22.883Z,100337.75
2023-04-26T08:40:51.861Z,100326.84
2023-04-26T08:43:18.972Z,100324.97
2023-04-26T08:45:49.469Z,100348.22
2023-04-26T08:48:18.537Z,100312.00
2023-04-26T08:50:48.977Z,100320.38
2023-04-26T08:53:21.678Z,100331.13
2023-04-26T08:55:50.272Z,100342.31
2023-04-26T08:58:18.619Z,100305.06
2023-04-26T09:00:46.451Z,100340.75
2023-04-26T09:03:14.278Z,100348.03
2023-04-26T09:05:45.823Z,100340.22
2023-04-26T09:08:18.295Z,100340.72
2023-04-26T09:10:45.727Z,100325.09
2023-04-26T09:13:13.125Z,100346.75
2023-04-26T09:15:40.616Z,100332.13
2023-04-26T09:18:23.956Z,100355.31
2023-04-26T09:21:08.428Z,100348.03
2023-04-26T09:23:35.854Z,100349.09
2023-04-26T09:26:17.283Z,100342.59
2023-04-26T09:28:44.611Z,100352.22
2023-04-26T09:31:12.382Z,100333.97
2023-04-26T09:33:59.061Z,100352.75
2023-04-26T09:36:26.394Z,100346.75
2023-04-26T09:38:53.613Z,100356.41
2023-04-26T09:41:21.060Z,100331.41
2023-04-26T09:43:51.805Z,100315.25
2023-04-26T09:46:25.208Z,100359.81
2023-04-26T09:49:03.073Z,100350.19
2023-04-26T09:51:30.227Z,100341.06
2023-04-26T09:53:57.384Z,100345.25
2023-04-26T09:56:24.434Z,100357.50
2023-04-26T09:59:05.740Z,100347.06
2023-04-26T10:01:33.506Z,100350.69
2023-04-26T10:04:05.062Z,100336.38
2023-04-26T10:06:33.115Z,100334.28
2023-04-26T10:09:02.156Z,100325.66
2023-04-26T10:11:29.896Z,100328.28
2023-04-26T10:13:57.516Z,100344.41
2023-04-26T10:16:24.706Z,100345.75
2023-04-26T10:18:52.672Z,100313.69
2023-04-26T10:21:27.381Z,100322.53
2023-04-26T10:23:54.580Z,100332.97
2023-04-26T10:26:48.603Z,100345.75
2023-04-26T10:29:16.098Z,100350.44
2023-04-26T10:32:09.648Z,100350.44
2023-04-26T10:34:37.509Z,100344.19
2023-04-26T10:37:08.563Z,100351.94
2023-04-26T10:39:39.453Z,100357.34
2023-04-26T10:42:26.607Z,100358.69
2023-04-26T10:44:57.859Z,100355.28
2023-04-26T10:47:33.269Z,100345.88
2023-04-26T10:50:11.426Z,100329.97
2023-04-26T10:53:02.058Z,100359.69
2023-04-26T10:55:39.043Z,100366.19
2023-04-26T10:58:29.961Z,100360.75
2023-04-26T11:01:11.992Z,100365.72
2023-04-26T11:03:41.339Z,100358.91
2023-04-26T11:06:14.016Z,100349.22
2023-04-26T11:08:41.727Z,100354.22
2023-04-26T11:11:12.015Z,100335.94
2023-04-26T11:13:41.284Z,100334.63
2023-04-26T11:16:10.801Z,100329.09
2023-04-26T11:18:43.281Z,100355.19
2023-04-26T11:21:12.276Z,100358.81
2023-04-26T11:23:41.044Z,100354.69
2023-04-26T11:26:09.579Z,100350.72
2023-04-26T11:28:38.121Z,100346.97
2023-04-26T11:31:07.342Z,100348.16
2023-04-26T11:33:34.599Z,100348.25
2023-04-26T11:36:02.380Z,100339.41
2023-04-26T11:38:30.105Z,100366.16
2023-04-26T11:41:03.263Z,100345.75
2023-04-26T11:43:40.296Z,100349.19
2023-04-26T11:46:09.402Z,100338.25
2023-04-26T11:48:38.628Z,100327.09
2023-04-26T11:51:07.764Z,100323.88
2023-04-26T11:53:39.688Z,100335.47
2023-04-26T11:56:21.979Z,100315.28
2023-04-26T11:58:51.594Z,100349.84
2023-04-26T12:01:26.981Z,100341.13
2023-04-26T12:03:59.002Z,100348.72
2023-04-26T12:06:30.886Z,100347.63
2023-04-26T12:08:58.025Z,100341.31
2023-04-26T12:11:25.774Z,100320.97
2023-04-26T12:13:52.818Z,100354.56
2023-04-26T12:16:26.114Z,100344.34
2023-04-26T12:18:57.011Z,100337.63
2023-04-26T12:21:25.584Z,100351.81
2023-04-26T12:23:52.968Z,100320.25
2023-04-26T12:26:20.665Z,100346.34
2023-04-26T12:28:47.808Z,100334.97
2023-04-26T12:31:15.053Z,100340.34
2023-04-26T12:33:42.353Z,100326.84
2023-04-26T12:36:11.927Z,100362.19
2023-04-26T12:38:40.742Z,100349.75
2023-04-26T12:41:08.050Z,100349.59
2023-04-26T12:43:35.162Z,100345.94
2023-04-26T12:46:02.449Z,100344.59
2023-04-26T12:48:29.576Z,100312.25
2023-04-26T12:50:56.809Z,100341.13
2023-04-26T12:53:23.882Z,100362.38
2023-04-26T12:55:51.239Z,100350.25
2023-04-26T12:58:19.041Z,100351.97
2023-04-26T13:00:46.177Z,100331.66
2023-04-26T13:03:14.975Z,100358.22
2023-04-26T13:05:42.527Z,100350.53
2023-04-26T13:08:09.709Z,100343.94
2023-04-26T13:10:36.774Z,100365.50
2023-04-26T13:13:04.027Z,100341.13
2023-04-26T13:15:31.138Z,100352.13
2023-04-26T13:17:58.333Z,100348.75
2023-04-26T13:20:27.214Z,100370.41
2023-04-26T13:22:55.741Z,100375.19
2023-04-26T13:25:23.450Z,100355.09
2023-04-26T13:27:53.673Z,100368.91
2023-04-26T13:30:20.921Z,100334.53
2023-04-26T13:32:48.213Z,100350.84
2023-04-26T13:35:15.406Z,100360.00
2023-04-26T13:37:42.806Z,100381.19
2023-04-26T13:40:11.457Z,100355.44
2023-04-26T13:42:39.642Z,100363.00
2023-04-26T13:45:09.542Z,100364.84
2023-04-26T13:47:37.078Z,100372.47
2023-04-26T13:50:04.498Z,100372.97
2023-04-26T13:52:31.859Z,100376.47
2023-04-26T13:54:59.082Z,100390.56
2023-04-26T13:57:26.238Z,100392.06
2023-04-26T13:59:53.378Z,100383.97
2023-04-26T14:02:21.634Z,100396.38
2023-04-26T14:04:49.030Z,100404.75
2023-04-26T14:07:17.220Z,100409.00
2023-04-26T14:09:44.263Z,100405.72
2023-04-26T14:12:11.553Z,100405.78
2023-04-26T14:14:38.698Z,100412.56
2023-04-26T14:17:05.739Z,100405.47
2023-04-26T14:19:32.952Z,100400.56
2023-04-26T14:22:00.051Z,100405.03
2023-04-26T14:24:27.340Z,100399.84
2023-04-26T14:26:54.363Z,100421.22
2023-04-26T14:29:21.968Z,100431.44
2023-04-26T14:31:49.287Z,100428.31
2023-04-26T14:34:16.785Z,100411.91
2023-04-26T14:36:43.898Z,100434.88
2023-04-26T14:39:11.015Z,100448.69
2023-04-26T14:41:38.085Z,100454.44
2023-04-26T14:44:05.390Z,100444.53
2023-04-26T14:46:32.605Z,100461.78
2023-04-26T14:48:59.751Z,100447.44
2023-04-26T14:51:27.483Z,100449.75
2023-04-26T14:53:54.664Z,100478.97
2023-04-26T14:56:22.093Z,100461.25
2023-04-26T14:58:49.136Z,100465.91
2023-04-26T15:01:16.195Z,100479.72
2023-04-26T15:03:43.533Z,100475.84
2023-04-26T15:06:10.868Z,100484.69
2023-04-26T15:08:38.024Z,100476.84
2023-04-26T15:11:05.205Z,100450.16
2023-04-26T15:13:32.546Z,100488.81
2023-04-26T15:16:06.795Z,100495.88
2023-04-26T15:18:34.824Z,100490.63
2023-04-26T15:21:01.921Z,100452.22
2023-04-26T15:23:28.970Z,100473.88
2023-04-26T15:26:02.161Z,100495.50
2023-04-26T15:28:29.384Z,100504.63
2023-04-26T15:31:08.940Z,100503.59
2023-04-26T15:33:36.668Z,100511.88
2023-04-26T15:36:04.088Z,100489.47
2023-04-26T15:38:31.342Z,100495.47
2023-04-26T15:40:58.409Z,100514.75
2023-04-26T15:43:25.778Z,100510.88
2023-04-26T15:45:53.522Z,100511.88
2023-04-26T15:48:20.773Z,100502.97
2023-04-26T15:50:48.151Z,100520.97
2023-04-26T15:53:15.296Z,100522.53
2023-04-26T15:55:42.460Z,100516.81
2023-04-26T15:58:09.666Z,100525.38
2023-04-26T16:00:37.263Z,100525.09
2023-04-26T16:03:04.476Z,100531.63
2023-04-26T16:05:31.851Z,100544.34
2023-04-26T16:07:59.846Z,100520.50
2023-04-26T16:10:27.171Z,100558.94
2023-04-26T16:12:54.311Z,100538.53
2023-04-26T16:15:21.810Z,100466.84
2023-04-26T16:17:48.948Z,100553.31
2023-04-26T16:20:16.538Z,100564.22
2023-04-26T16:22:45.247Z,100572.75
2023-04-26T16:25:12.565Z,100547.16
2023-04-26T16:27:39.595Z,100564.91
2023-04-26T16:30:07.258Z,100556.06
2023-04-26T16:32:34.432Z,100576.94
2023-04-26T16:35:01.598Z,100552.06
2023-04-26T16:37:28.646Z,100581.00
2023-04-26T16:39:58.604Z,100588.34
2023-04-26T16:42:26.410Z,100585.41
2023-04-26T16:44:55.026Z,100603.22
2023-04-26T16:47:22.105Z,100614.41
2023-04-26T16:49:49.200Z,100580.69
2023-04-26T16:52:16.423Z,100606.78
2023-04-26T16:54:43.747Z,100607.56
2023-04-26T16:57:11.256Z,100598.22
2023-04-26T16:59:38.301Z,100629.16
2023-04-26T17:02:05.463Z,100625.19
2023-04-26T17:04:33.827Z,100624.19
2023-04-26T17:07:01.516Z,100629.00
2023-04-26T17:09:28.759Z,100633.63
2023-04-26T17:11:56.260Z,100621.50
2023-04-26T17:14:23.469Z,100640.50
2023-04-26T17:16:50.706Z,100647.25
2023-04-26T17:19:17.977Z,100639.84
2023-04-26T17:21:45.004Z,100660.41
2023-04-26T17:24:12.108Z,100644.72
2023-04-26T17:26:39.166Z,100654.31
2023-04-26T17:29:06.465Z,100666.47
2023-04-26T17:31:33.565Z,100688.78
2023-04-26T17:34:02.019Z,100683.31
2023-04-26T17:36:32.050Z,100632.00
2023-04-26T17:38:59.169Z,100675.84
2023-04-26T17:41:26.137Z,100679.69
2023-04-26T17:43:53.190Z,100700.13
2023-04-26T17:46:20.501Z,100698.81
2023-04-26T17:48:47.682Z,100686.53
2023-04-26T17:51:14.827Z,100706.56
2023-04-26T17:53:42.005Z,100719.44
2023-04-26T17:56:10.094Z,100731.31
2023-04-26T17:58:37.625Z,100734.56
2023-04-26T18:01:04.915Z,100741.72
2023-04-26T18:03:35.760Z,100723.47
2023-04-26T18:06:03.741Z,100754.91
2023-04-26T18:08:31.201Z,100748.72
2023-04-26T18:10:58.640Z,100757.31
2023-04-26T18:13:26.081Z,100763.41
2023-04-26T18:15:56.141Z,100736.81
2023-04-26T18:18:24.523Z,100771.34
2023-04-26T18:20:52.911Z,100779.13
2023-04-26T18:23:20.244Z,100792.59
2023-04-26T18:25:47.567Z,100784.97
2023-04-26T18:28:15.008Z,100731.00
2023-04-26T18:30:42.313Z,100798.84
2023-04-26T18:33:09.386Z,100781.22
2023-04-26T18:35:36.790Z,100782.03
2023-04-26T18:38:03.976Z,100787.72
2023-04-26T18:40:31.174Z,100774.44
2023-04-26T18:42:58.917Z,100810.16
2023-04-26T18:45:26.012Z,100817.63
2023-04-26T18:47:55.260Z,100820.50
2023-04-26T18:50:22.541Z,100824.06
2023-04-26T18:52:49.593Z,100823.84
2023-04-26T18:55:16.899Z,100823.94
2023-04-26T18:57:43.972Z,100829.94
2023-04-26T19:00:11.988Z,100845.78
2023-04-26T19:02:41.860Z,100838.88
2023-04-26T19:05:10.529Z,100842.03
2023-04-26T19:07:37.769Z,100818.97
2023-04-26T19:10:05.464Z,100810.78
2023-04-26T19:12:32.642Z,100849.50
2023-04-26T19:14:59.821Z,100856.47
2023-04-26T19:17:27.064Z,100848.72
2023-04-26T19:19:55.417Z,100837.50
2023-04-26T19:22:22.576Z,100848.22
2023-04-26T19:24:50.732Z,100866.97
2023-04-26T19:27:17.993Z,100845.41
2023-04-26T19:29:45.092Z,100852.00
2023-04-26T19:32:12.104Z,100852.13
2023-04-26T19:34:40.721Z,100857.53
2023-04-26T19:37:07.796Z,100865.78
2023-04-26T19:39:34.880Z,100844.28
2023-04-26T19:42:03.461Z,100877.78
2023-04-26T19:44:30.624Z,100869.03
2023-04-26T19:46:57.817Z,100860.16
2023-04-26T19:49:26.182Z,100867.44
2023-04-26T19:51:54.873Z,100882.97
2023-04-26T19:54:22.009Z,100887.78
2023-04-26T19:56:49.080Z,100887.22
2023-04-26T19:59:16.204Z,100887.09
2023-04-26T20:01:43.381Z,100885.44
2023-04-26T20:04:10.832Z,100856.84
2023-04-26T20:06:38.049Z,100894.75
2023-04-26T20:09:07.125Z,100887.91
2023-04-26T20:11:34.418Z,100894.84
2023-04-26T20:14:01.597Z,100875.28
2023-04-26T20:16:28.784Z,100894.25
2023-04-26T20:18:55.943Z,100869.44
2023-04-26T20:21:23.019Z,100893.00
2023-04-26T20:23:50.085Z,100893.94
2023-04-26T20:26:17.273Z,100873.72
2023-04-26T20:28:45.584Z,100877.88
2023-04-26T20:31:12.625Z,100886.38
2023-04-26T20:33:39.812Z,100889.22
2023-04-26T20:36:07.283Z,100883.28
2023-04-26T20:38:34.416Z,100890.59
2023-04-26T20:41:01.462Z,100899.53
2023-04-26T20:43:28.975Z,100877.13
2023-04-26T20:45:56.105Z,100884.69
2023-04-26T20:48:24.275Z,100892.59
2023-04-26T20:50:54.344Z,100875.84
2023-04-26T20:53:21.382Z,100884.69
2023-04-26T20:55:48.477Z,100889.09
2023-04-26T20:58:15.607Z,100889.69
2023-04-26T21:00:42.732Z,100880.91
2023-04-26T21:03:09.856Z,100888.88
2023-04-26T21:05:37.016Z,100900.41
2023-04-26T21:08:04.272Z,100888.75
2023-04-26T21:10:31.442Z,100871.53
2023-04-26T21:12:58.486Z,100900.44
2023-04-26T21:15:25.749Z,100907.41
2023-04-26T21:17:52.879Z,100910.75
2023-04-26T21:20:20.026Z,100909.63
2023-04-26T21:22:47.095Z,100919.91
2023-04-26T21:25:17.166Z,100910.56
2023-04-26T21:27:44.353Z,100896.22
2023-04-26T21:30:12.115Z,100911.38
2023-04-26T21:32:41.924Z,100927.53
2023-04-26T21:35:11.037Z,100922.91
2023-04-26T21:37:38.090Z,100912.31
2023-04-26T21:40:06.743Z,100924.03
2023-04-26T21:42:33.925Z,100931.63
2023-04-26T21:45:01.254Z,100927.19
2023-04-26T21:47:28.441Z,100942.06
2023-04-26T21:49:55.958Z,100932.72
2023-04-26T21:52:22.880Z,100955.78
2023-04-26T21:54:52.369Z,100933.53
2023-04-26T21:57:23.068Z,100932.34
2023-04-26T21:59:51.076Z,100950.25
2023-04-26T22:02:18.875Z,100956.91
2023-04-26T22:04:46.049Z,100961.47
2023-04-26T22:07:13.128Z,100944.25
2023-04-26T22:09:40.087Z,100966.09
2023-04-26T22:12:07.317Z,100972.22
2023-04-26T22:14:34.372Z,100953.28
2023-04-26T22:17:02.231Z,100949.78
2023-04-26T22:19:29.328Z,100939.47
2023-04-26T22:21:56.582Z,100958.13
2023-04-26T22:24:23.663Z,100927.72
2023-04-26T22:26:50.726Z,100966.94
2023-04-26T22:29:17.822Z,100967.25
2023-04-26T22:31:44.926Z,100972.31
2023-04-26T22:34:12.048Z,100954.91
2023-04-26T22:36:39.820Z,100970.09
2023-04-26T22:39:07.175Z,100985.09
2023-04-26T22:41:34.235Z,100982.25
2023-04-26T22:44:01.388Z,100984.00
2023-04-26T22:46:28.596Z,100978.88
2023-04-26T22:48:55.710Z,100982.53
2023-04-26T22:51:23.052Z,100983.50
2023-04-26T22:53:50.197Z,100985.69
2023-04-26T22:56:17.747Z,100956.75
2023-04-26T22:58:44.941Z,100969.03
2023-04-26T23:01:12.056Z,100975.69
2023-04-26T23:03:39.231Z,100994.22
2023-04-26T23:06:06.796Z,100971.56
2023-04-26T23:08:33.867Z,100987.91
2023-04-26T23:11:01.043Z,100999.69
2023-04-26T23:13:29.654Z,100993.78
2023-04-26T23:15:57.090Z,100980.63
2023-04-26T23:18:26.658Z,100995.16
2023-04-26T23:20:53.841Z,100993.31
2023-04-26T23:23:21.151Z,100979.56
2023-04-26T23:25:48.184Z,101001.81
2023-04-26T23:28:15.295Z,100997.25
2023-04-26T23:30:42.311Z,100977.31
2023-04-26T23:33:09.483Z,100998.66
2023-04-26T23:35:41.311Z,101002.44
2023-04-26T23:38:08.517Z,100997.25
2023-04-26T23:40:37.356Z,101008.47
2023-04-26T23:43:06.264Z,101010.25
2023-04-26T23:45:33.536Z,101019.00
2023-04-26T23:48:00.886Z,101006.97
2023-04-26T23:50:28.014Z,100997.34
2023-04-26T23:52:55.116Z,100979.75
2023-04-26T23:55:22.975Z,101018.09
2023-04-26T23:57:49.994Z,101012.78
